createdAt,value
2023-04-23T00:02:21.006Z,25.9
2023-04-23T00:08:15.170Z,29.6
2023-04-23T00:14:07.147Z,26.4
2023-04-23T00:19:58.460Z,25.6
2023-04-23T00:25:49.354Z,25.4
2023-04-23T00:31:41.117Z,25.2
2023-04-23T00:37:16.774Z,24.9
2023-04-23T00:43:07.978Z,24.8
2023-04-23T00:49:00.294Z,27.3
2023-04-23T00:54:51.955Z,28.9
2023-04-23T01:00:42.614Z,26.1
2023-04-23T01:06:35.497Z,25.5
2023-04-23T01:12:26.317Z,25.3
2023-04-23T01:18:02.789Z,25.1
2023-04-23T01:23:53.894Z,24.9
2023-04-23T01:29:45.344Z,24.6
2023-04-23T01:35:37.042Z,28.4
2023-04-23T01:41:28.635Z,27.4
2023-04-23T01:47:22.742Z,25.8
2023-04-23T01:53:14.566Z,25.4
2023-04-23T01:58:49.469Z,25.3
2023-04-23T02:04:42.574Z,25.1
2023-04-23T02:10:34.169Z,24.8
2023-04-23T02:16:26.004Z,25.4
2023-04-23T02:22:18.287Z,29.3
2023-04-23T02:28:10.030Z,26.5
2023-04-23T02:34:01.923Z,25.2
2023-04-23T02:39:53.119Z,24.1
2023-04-23T02:45:44.588Z,23.5
2023-04-23T02:51:36.224Z,23.1
2023-04-23T02:57:27.669Z,22.8
2023-04-23T03:03:20.627Z,22.6
2023-04-23T03:08:57.191Z,27.1
2023-04-23T03:14:48.843Z,28.5
2023-04-23T03:20:40.522Z,26
2023-04-23T03:26:31.660Z,24.4
2023-04-23T03:32:24.970Z,23.9
2023-04-23T03:38:16.938Z,23.3
2023-04-23T03:43:52.898Z,23
2023-04-23T03:49:29.034Z,22.6
2023-04-23T03:55:20.682Z,22.5
2023-04-23T04:00:56.216Z,28.1
2023-04-23T04:06:51.070Z,26.9
2023-04-23T04:12:42.730Z,25.6
2023-04-23T04:18:34.385Z,24
2023-04-23T04:24:27.219Z,23.5
2023-04-23T04:30:18.447Z,23.1
2023-04-23T04:36:10.178Z,22.7
2023-04-23T04:42:01.674Z,22.4
2023-04-23T04:47:53.816Z,22.3
2023-04-23T04:53:45.199Z,28.1
2023-04-23T04:59:36.460Z,27
2023-04-23T05:05:14.609Z,25.7
2023-04-23T05:11:07.428Z,25.3
2023-04-23T05:16:59.321Z,25.1
2023-04-23T05:22:50.874Z,24.8
2023-04-23T05:28:42.763Z,24.5
2023-04-23T05:34:40.447Z,27.4
2023-04-23T05:40:33.855Z,28.3
2023-04-23T05:46:25.727Z,25.9
2023-04-23T05:52:19.535Z,25.4
2023-04-23T05:58:11.229Z,25.2
2023-04-23T06:03:49.602Z,24.9
2023-04-23T06:09:45.548Z,24.8
2023-04-23T06:15:38.553Z,26.9
2023-04-23T06:21:30.302Z,29.2
2023-04-23T06:27:22.194Z,26
2023-04-23T06:33:13.898Z,25.4
2023-04-23T06:39:15.724Z,25.3
2023-04-23T06:45:07.481Z,25
2023-04-23T06:50:59.752Z,24.8
2023-04-23T06:56:51.655Z,27.3
2023-04-23T07:02:44.859Z,28.7
2023-04-23T07:08:37.630Z,25.9
2023-04-23T07:14:28.844Z,25.4
2023-04-23T07:20:20.494Z,25.3
2023-04-23T07:26:11.805Z,25.1
2023-04-23T07:32:02.745Z,24.8
2023-04-23T07:37:54.754Z,28.4
2023-04-23T07:43:48.819Z,27.6
2023-04-23T07:49:41.349Z,25.8
2023-04-23T07:55:17.495Z,25.4
2023-04-23T08:01:11.571Z,25.2
2023-04-23T08:07:06.226Z,25.1
2023-04-23T08:12:57.520Z,24.8
2023-04-23T08:19:03.995Z,29.4
2023-04-23T08:24:56.852Z,26.8
2023-04-23T08:30:33.626Z,25.7
2023-04-23T08:36:41.430Z,25.3
2023-04-23T08:42:29.305Z,25.1
2023-04-23T08:48:05.953Z,24.8
2023-04-23T08:53:41.823Z,24.6
2023-04-23T08:59:18.400Z,29.1
2023-04-23T09:05:12.511Z,27
2023-04-23T09:10:51.097Z,25.8
2023-04-23T09:16:41.790Z,25.4
2023-04-23T09:22:17.197Z,25.2
2023-04-23T09:28:09.006Z,24.9
2023-04-23T09:33:45.883Z,24.6
2023-04-23T09:39:37.040Z,24.3
2023-04-23T09:45:13.951Z,24.1
2023-04-23T09:50:50.884Z,23.9
2023-04-23T09:56:43.159Z,23.7
2023-04-23T10:02:58.698Z,23.4
2023-04-23T10:09:51.183Z,23.3
2023-04-23T10:16:48.534Z,22.9
2023-04-23T10:22:51.874Z,22.8
2023-04-23T10:28:59.550Z,22.6
2023-04-23T10:35:21.228Z,22.4
2023-04-23T10:41:14.074Z,22.3
2023-04-23T10:47:16.029Z,22.1
2023-04-23T10:53:53.311Z,22
2023-04-23T10:59:44.262Z,21.9
2023-04-23T11:05:40.466Z,21.8
2023-04-23T11:11:39.494Z,21.6
2023-04-23T11:17:33.346Z,21.6
2023-04-23T11:23:11.710Z,21.5
2023-04-23T11:29:03.017Z,21.4
2023-04-23T11:35:04.526Z,21.3
2023-04-23T11:40:56.415Z,21.2
2023-04-23T11:51:39.511Z,21.1
2023-04-23T11:57:31.301Z,20.9
2023-04-23T12:03:24.711Z,20.9
2023-04-23T12:09:26.664Z,20.9
2023-04-23T12:15:02.122Z,20.9
2023-04-23T12:20:56.230Z,20.9
2023-04-23T12:26:47.966Z,20.9
2023-04-23T12:32:40.252Z,20.8
2023-04-23T12:38:32.042Z,20.8
2023-04-23T12:44:23.003Z,20.8
2023-04-23T12:50:15.609Z,20.7
2023-04-23T12:56:07.223Z,20.7
2023-04-23T13:01:59.223Z,20.7
2023-04-23T13:07:53.537Z,20.7
2023-04-23T13:13:30.050Z,20.6
2023-04-23T13:19:22.255Z,20.6
2023-04-23T13:25:16.497Z,20.6
2023-04-23T13:30:52.868Z,20.6
2023-04-23T13:36:29.081Z,20.6
2023-04-23T13:42:35.371Z,20.5
2023-04-23T13:48:27.041Z,20.5
2023-04-23T13:54:35.313Z,20.5
2023-04-23T14:00:24.183Z,20.5
2023-04-23T14:06:17.533Z,20.5
2023-04-23T14:11:54.972Z,20.4
2023-04-23T14:17:31.011Z,20.5
2023-04-23T14:23:11.329Z,20.4
2023-04-23T14:29:17.277Z,20.4
2023-04-23T14:35:08.718Z,20.4
2023-04-23T14:41:15.794Z,20.4
2023-04-23T14:47:19.449Z,20.4
2023-04-23T14:52:55.611Z,20.4
2023-04-23T14:58:47.028Z,20.4
2023-04-23T15:04:42.239Z,20.4
2023-04-23T15:10:33.992Z,20.4
2023-04-23T15:22:28.913Z,20.3
2023-04-23T15:28:20.786Z,20.3
2023-04-23T15:33:57.731Z,20.3
2023-04-23T15:39:50.399Z,20.3
2023-04-23T15:45:41.704Z,20.3
2023-04-23T15:51:33.539Z,20.3
2023-04-23T15:57:26.014Z,20.3
2023-04-23T16:03:21.464Z,20.3
2023-04-23T16:09:29.999Z,20.4
2023-04-23T16:15:22.293Z,20.3
2023-04-23T16:21:15.107Z,20.3
2023-04-23T16:27:07.065Z,20.3
2023-04-23T16:33:19.379Z,20.3
2023-04-23T16:39:10.811Z,20.2
2023-04-23T16:45:02.637Z,20.3
2023-04-23T16:50:56.224Z,20.3
2023-04-23T16:56:49.565Z,20.3
2023-04-23T17:02:42.635Z,20.3
2023-04-23T17:08:37.258Z,20.3
2023-04-23T17:14:14.943Z,20.3
2023-04-23T17:19:52.760Z,20.2
2023-04-23T17:25:45.565Z,20.2
2023-04-23T17:31:38.852Z,20.2
2023-04-23T17:37:38.813Z,20.2
2023-04-23T17:43:32.131Z,20.2
2023-04-23T17:49:28.100Z,20.1
2023-04-23T17:55:24.181Z,20.2
2023-04-23T18:01:04.429Z,20.1
2023-04-23T18:07:02.402Z,20.1
2023-04-23T18:12:41.400Z,20.1
2023-04-23T18:18:19.586Z,20.1
2023-04-23T18:23:59.298Z,20.1
2023-04-23T18:29:21.456Z,20.1
2023-04-23T18:35:12.332Z,20.1
2023-04-23T18:41:44.697Z,20.1
2023-04-23T18:47:23.052Z,20.1
2023-04-23T18:53:01.386Z,20.1
2023-04-23T18:58:42.378Z,20.1
2023-04-23T19:05:03.204Z,20.1
2023-04-23T19:10:56.569Z,20.1
2023-04-23T19:16:19.003Z,20.1
2023-04-23T19:22:12.603Z,20.1
2023-04-23T19:27:50.826Z,20.1
2023-04-23T19:33:44.351Z,20.1
2023-04-23T19:39:22.014Z,20.1
2023-04-23T19:45:00.235Z,20.1
2023-04-23T19:50:38.586Z,20.1
2023-04-23T19:56:18.032Z,20.1
2023-04-23T20:02:11.880Z,20.1
2023-04-23T20:07:50.364Z,20.1
2023-04-23T20:13:27.386Z,20.1
2023-04-23T20:19:07.773Z,20.1
2023-04-23T20:24:30.234Z,20.1
2023-04-23T20:30:08.158Z,20.1
2023-04-23T20:35:45.063Z,20.1
2023-04-23T20:41:21.916Z,20.1
2023-04-23T20:46:58.118Z,20.1
2023-04-23T20:52:49.485Z,20.1
2023-04-23T20:58:25.352Z,19.9
2023-04-23T21:04:18.821Z,27.1
2023-04-23T21:10:10.695Z,30.5
2023-04-23T21:16:02.315Z,29.4
2023-04-23T21:21:54.585Z,26.1
2023-04-23T21:27:47.293Z,25.4
2023-04-23T21:33:24.338Z,28.1
2023-04-23T21:39:15.978Z,31.2
2023-04-23T21:45:07.416Z,27.4
2023-04-23T21:50:59.528Z,25.9
2023-04-23T21:56:51.389Z,25.6
2023-04-23T22:03:00.561Z,24.9
2023-04-23T22:09:11.060Z,30.2
2023-04-23T22:15:17.210Z,28.8
2023-04-23T22:21:22.373Z,26.3
2023-04-23T22:27:12.695Z,25.9
2023-04-23T22:32:48.490Z,25.6
2023-04-23T22:38:40.778Z,25
2023-04-23T22:44:18.446Z,30.2
2023-04-23T22:49:54.420Z,28.8
2023-04-23T22:55:17.200Z,26.3
2023-04-23T23:00:52.977Z,25.8
2023-04-23T23:06:14.356Z,25.6
2023-04-23T23:12:05.683Z,25.4
2023-04-23T23:17:41.715Z,28.3
2023-04-23T23:23:32.950Z,31.5
2023-04-23T23:29:24.002Z,26.8
2023-04-23T23:35:15.702Z,25.9
2023-04-23T23:41:06.792Z,25.6
2023-04-23T23:47:01.364Z,25.4
2023-04-23T23:52:37.944Z,24.9
2023-04-23T23:58:14.243Z,30
